createdAt,value
2023-03-02T00:05:47.832Z,10.30
2023-03-02T00:20:52.287Z,10.40
2023-03-02T00:35:56.708Z,10.30
2023-03-02T00:51:03.231Z,9.40
2023-03-02T01:06:15.846Z,9.10
2023-03-02T01:21:20.469Z,8.90
2023-03-02T01:36:25.122Z,8.20
2023-03-02T01:51:33.160Z,8.20
2023-03-02T02:06:40.793Z,9.00
2023-03-02T02:21:45.589Z,9.40
2023-03-02T02:36:53.962Z,9.10
2023-03-02T02:51:59.373Z,9.20
2023-03-02T03:07:07.860Z,9.00
2023-03-02T03:22:13.942Z,9.00
2023-03-02T03:37:20.554Z,8.80
2023-03-02T03:52:30.621Z,8.90
2023-03-02T04:07:43.192Z,8.90
2023-03-02T04:22:50.073Z,9.00
2023-03-02T04:37:54.810Z,8.90
2023-03-02T04:52:59.468Z,8.90
2023-03-02T05:08:04.081Z,8.80
2023-03-02T05:23:10.682Z,8.10
2023-03-02T05:38:15.262Z,8.10
2023-03-02T05:53:19.851Z,8.20
2023-03-02T06:08:24.443Z,8.40
2023-03-02T06:23:28.936Z,8.60
2023-03-02T06:38:33.370Z,8.80
2023-03-02T06:53:38.167Z,8.60
2023-03-02T07:08:42.672Z,8.40
2023-03-02T07:23:47.140Z,8.30
2023-03-02T07:38:51.669Z,8.40
2023-03-02T07:53:56.099Z,8.50
2023-03-02T08:09:02.574Z,7.70
2023-03-02T08:24:07.648Z,7.40
2023-03-02T08:39:12.332Z,7.50
2023-03-02T08:54:17.170Z,8.10
2023-03-02T09:09:21.624Z,7.20
2023-03-02T09:24:26.013Z,7.70
2023-03-02T09:39:30.464Z,9.40
2023-03-02T09:54:37.896Z,9.80
2023-03-02T10:09:43.731Z,10.00
2023-03-02T10:24:58.301Z,10.40
2023-03-02T10:40:02.881Z,9.80
2023-03-02T10:55:14.417Z,9.30
2023-03-02T11:10:23.568Z,9.80
2023-03-02T11:25:34.294Z,10.20
2023-03-02T11:40:47.229Z,10.30
2023-03-02T11:55:51.820Z,11.40
2023-03-02T12:11:04.375Z,12.40
2023-03-02T12:26:26.138Z,11.70
2023-03-02T12:41:52.926Z,12.40
2023-03-02T12:57:16.771Z,13.10
2023-03-02T13:12:21.376Z,12.90
2023-03-02T13:27:27.212Z,13.80
2023-03-02T13:42:38.433Z,14.30
2023-03-02T13:57:45.288Z,14.70
2023-03-02T14:12:57.049Z,15.40
2023-03-02T14:28:01.535Z,15.00
2023-03-02T14:43:06.216Z,17.20
2023-03-02T14:58:15.950Z,18.00
2023-03-02T15:13:20.465Z,18.90
2023-03-02T15:28:24.896Z,19.10
2023-03-02T15:43:29.289Z,18.40
2023-03-02T15:58:34.218Z,19.30
2023-03-02T16:13:39.236Z,18.50
2023-03-02T16:28:43.773Z,17.20
2023-03-02T16:43:50.513Z,16.00
2023-03-02T16:58:55.668Z,15.50
2023-03-02T17:14:00.294Z,15.20
2023-03-02T17:29:05.008Z,14.70
2023-03-02T17:44:09.399Z,14.60
2023-03-02T17:59:14.125Z,14.50
2023-03-02T18:14:20.784Z,14.10
2023-03-02T18:29:25.212Z,13.90
2023-03-02T18:44:31.078Z,13.90
2023-03-02T18:59:36.552Z,13.40
2023-03-02T19:14:42.722Z,13.60
2023-03-02T19:29:47.436Z,13.60
2023-03-02T19:44:52.193Z,13.30
2023-03-02T19:59:57.321Z,12.90
2023-03-02T20:15:02.913Z,13.00
2023-03-02T20:30:14.683Z,13.00
2023-03-02T20:45:19.514Z,12.80
2023-03-02T21:00:26.710Z,12.80
2023-03-02T21:15:31.208Z,12.80
2023-03-02T21:30:36.791Z,12.80
2023-03-02T21:45:42.056Z,12.60
2023-03-02T22:00:46.755Z,12.80
2023-03-02T22:16:12.361Z,12.50
2023-03-02T22:31:20.969Z,12.40
2023-03-02T22:46:27.135Z,12.40
2023-03-02T23:01:40.191Z,12.20
2023-03-02T23:16:44.778Z,11.90
2023-03-02T23:31:50.164Z,11.70
2023-03-02T23:46:54.696Z,11.50
